Time;durP1;ratioP1;P1;durP2;ratioP2;P2;SDS_P1;SDS_P2;PMS_P1;PMS_P2;Temp;Humidity;BMP_temperature;BMP_pressure;BME280_temperature;BME280_humidity;BME280_pressure;Samples;Min_cycle;Max_cycle;Signal;HPM_P1;HPM_P2
2021/12/09 00:01:01;;;;;;;37.08;13.98;;;0.30;99.90;;;;;;5094086;27;20047;-73
2021/12/09 00:03:28;;;;;;;36.05;14.60;;;0.30;99.90;;;;;;5113779;27;20035;-73
2021/12/09 00:05:56;;;;;;;40.35;14.65;;;0.30;99.90;;;;;;5094983;27;20115;-74
2021/12/09 00:08:24;;;;;;;41.92;14.95;;;0.30;99.90;;;;;;5108968;27;20389;-74
2021/12/09 00:10:50;;;;;;;43.70;15.38;;;0.30;99.90;;;;;;5110267;27;20063;-73
2021/12/09 00:13:16;;;;;;;45.33;16.52;;;0.30;99.90;;;;;;5106860;27;20084;-73
2021/12/09 00:15:41;;;;;;;45.75;15.98;;;0.30;99.90;;;;;;5113698;27;20047;-71
2021/12/09 00:18:07;;;;;;;46.38;16.10;;;0.30;99.90;;;;;;5107209;27;20040;-72
2021/12/09 00:20:32;;;;;;;43.90;15.93;;;0.30;99.90;;;;;;5104928;27;20066;-74
2021/12/09 00:22:58;;;;;;;46.38;16.33;;;0.30;99.90;;;;;;5128731;27;20134;-73
2021/12/09 00:25:24;;;;;;;43.03;16.17;;;0.30;99.90;;;;;;5111348;27;20122;-73
2021/12/09 00:27:51;;;;;;;42.58;16.55;;;0.30;99.90;;;;;;5111800;27;20173;-73
2021/12/09 00:30:18;;;;;;;47.70;16.27;;;0.30;99.90;;;;;;5096352;27;20032;-73
2021/12/09 00:32:44;;;;;;;42.42;16.55;;;0.30;99.90;;;;;;5107427;27;20031;-73
2021/12/09 00:35:14;;;;;;;45.22;16.58;;;0.30;99.90;;;;;;5116565;27;20054;-73
2021/12/09 00:37:51;;;;;;;38.30;15.98;;;0.30;99.90;;;;;;5111465;27;20390;-73
2021/12/09 00:40:16;;;;;;;41.38;17.75;;;0.30;99.90;;;;;;5109605;27;20049;-73
2021/12/09 00:42:42;;;;;;;49.85;17.92;;;0.30;99.90;;;;;;5113536;27;20035;-74
2021/12/09 00:45:08;;;;;;;42.80;17.25;;;0.30;99.90;;;;;;5113129;27;20067;-73
2021/12/09 00:47:33;;;;;;;50.75;18.48;;;0.30;99.90;;;;;;5109874;27;20047;-74
2021/12/09 00:49:59;;;;;;;48.67;17.73;;;0.30;99.90;;;;;;5095306;27;20043;-73
2021/12/09 00:52:25;;;;;;;45.40;17.80;;;0.20;99.90;;;;;;5111856;27;20043;-73
2021/12/09 00:54:52;;;;;;;50.42;18.08;;;0.30;99.90;;;;;;5111663;27;20378;-70
2021/12/09 00:57:18;;;;;;;44.28;17.52;;;0.30;99.90;;;;;;5111469;27;20041;-72
2021/12/09 00:59:43;;;;;;;53.60;18.08;;;0.30;99.90;;;;;;5107765;27;20130;-73
2021/12/09 01:02:10;;;;;;;52.47;19.08;;;0.30;99.90;;;;;;5112589;27;20111;-73
2021/12/09 01:04:37;;;;;;;52.20;16.92;;;0.30;99.90;;;;;;5105503;27;20035;-73
2021/12/09 01:07:04;;;;;;;56.75;18.98;;;0.30;99.90;;;;;;5111248;27;20477;-73
2021/12/09 01:09:29;;;;;;;56.72;19.33;;;0.30;99.90;;;;;;5111484;27;20035;-73
2021/12/09 01:11:55;;;;;;;47.47;18.05;;;0.30;99.90;;;;;;5115279;27;20053;-72
2021/12/09 01:14:20;;;;;;;49.70;18.40;;;0.30;99.90;;;;;;5112153;27;20051;-73
2021/12/09 01:16:46;;;;;;;45.70;19.02;;;0.30;99.90;;;;;;5112783;27;20474;-74
2021/12/09 01:19:12;;;;;;;54.28;19.80;;;0.30;99.90;;;;;;5106589;27;20050;-74
2021/12/09 01:21:37;;;;;;;54.13;19.27;;;0.30;99.90;;;;;;5110590;27;20078;-74
2021/12/09 01:24:03;;;;;;;52.33;18.88;;;0.30;99.90;;;;;;5112101;27;20078;-73
2021/12/09 01:26:30;;;;;;;46.50;19.60;;;0.30;99.90;;;;;;5095269;27;20409;-73
2021/12/09 01:29:00;;;;;;;49.83;19.52;;;0.30;99.90;;;;;;5112328;27;20081;-73
2021/12/09 01:31:32;;;;;;;49.47;18.67;;;0.20;99.90;;;;;;5112474;27;20500;-73
2021/12/09 01:34:01;;;;;;;45.92;19.02;;;0.20;99.90;;;;;;5109420;27;20062;-73
2021/12/09 01:36:28;;;;;;;53.70;19.92;;;0.20;99.90;;;;;;5119791;27;20095;-73
2021/12/09 01:38:54;;;;;;;56.55;19.58;;;0.20;99.90;;;;;;5111447;27;20061;-74
2021/12/09 01:41:19;;;;;;;52.22;19.65;;;0.20;99.90;;;;;;5111606;27;20031;-73
2021/12/09 01:43:46;;;;;;;51.17;19.55;;;0.20;99.90;;;;;;5111573;27;20537;-73
2021/12/09 01:46:16;;;;;;;57.75;19.63;;;0.10;99.90;;;;;;5115033;27;20039;-73
2021/12/09 01:48:44;;;;;;;54.42;19.40;;;0.20;99.90;;;;;;5112508;27;20448;-73
2021/12/09 01:51:10;;;;;;;47.42;18.35;;;0.10;99.90;;;;;;5111370;27;20674;-74
2021/12/09 01:53:36;;;;;;;53.72;19.42;;;0.10;99.90;;;;;;5111846;27;20138;-73
2021/12/09 01:56:06;;;;;;;52.28;18.70;;;0.10;99.90;;;;;;5113247;27;20046;-73
2021/12/09 01:58:32;;;;;;;59.03;19.30;;;0.10;99.90;;;;;;5108982;27;20125;-73
2021/12/09 02:00:57;;;;;;;46.63;18.75;;;0.10;99.90;;;;;;5110815;27;20504;-74
2021/12/09 02:03:23;;;;;;;55.38;19.95;;;0.10;99.90;;;;;;5110195;27;20035;-74
2021/12/09 02:05:48;;;;;;;51.47;19.25;;;0.00;99.90;;;;;;5107108;27;20095;-73
2021/12/09 02:08:15;;;;;;;47.92;18.27;;;0.00;99.90;;;;;;5106819;27;20137;-73
2021/12/09 02:10:42;;;;;;;52.47;19.60;;;0.00;99.90;;;;;;5101973;27;20135;-73
2021/12/09 02:13:08;;;;;;;48.33;19.40;;;0.00;99.90;;;;;;5107370;27;20078;-73
2021/12/09 02:15:35;;;;;;;49.58;18.90;;;0.00;99.90;;;;;;5111936;27;20386;-73
2021/12/09 02:18:04;;;;;;;49.85;18.75;;;0.00;99.90;;;;;;5092447;27;20098;-73
2021/12/09 02:20:33;;;;;;;50.83;18.90;;;-0.10;99.90;;;;;;5109454;27;20050;-74
2021/12/09 02:22:59;;;;;;;44.65;20.25;;;-0.10;99.90;;;;;;5109514;27;20358;-72
2021/12/09 02:25:25;;;;;;;51.85;19.35;;;-0.10;99.90;;;;;;5092712;27;20072;-71
2021/12/09 02:27:51;;;;;;;48.22;19.45;;;-0.10;99.90;;;;;;5111540;27;20035;-73
2021/12/09 02:30:18;;;;;;;52.20;20.17;;;-0.10;99.90;;;;;;5108148;27;20431;-74
2021/12/09 02:32:45;;;;;;;50.70;19.38;;;-0.10;99.90;;;;;;5107798;27;20044;-73
2021/12/09 02:35:11;;;;;;;58.15;20.30;;;-0.10;99.90;;;;;;5112940;27;20070;-73
2021/12/09 02:37:37;;;;;;;51.88;19.75;;;-0.10;99.90;;;;;;5113159;27;20031;-73
2021/12/09 02:40:06;;;;;;;53.53;19.65;;;-0.10;99.90;;;;;;5109748;27;20054;-73
2021/12/09 02:42:32;;;;;;;53.35;20.05;;;-0.10;99.90;;;;;;5113876;27;20089;-73
2021/12/09 02:44:58;;;;;;;51.53;19.92;;;-0.10;99.90;;;;;;5111376;27;20074;-73
2021/12/09 02:47:24;;;;;;;51.08;18.98;;;-0.20;99.90;;;;;;5109132;28;20035;-72
2021/12/09 02:49:50;;;;;;;49.03;19.38;;;-0.20;99.90;;;;;;5106199;28;20028;-73
2021/12/09 02:52:16;;;;;;;55.90;20.38;;;-0.20;99.90;;;;;;5102584;28;20494;-74
2021/12/09 02:54:42;;;;;;;53.33;19.55;;;-0.20;99.90;;;;;;5109222;28;20092;-73
2021/12/09 02:57:08;;;;;;;54.65;20.08;;;-0.20;99.90;;;;;;5109858;28;20039;-73
2021/12/09 02:59:34;;;;;;;49.80;19.65;;;-0.20;99.90;;;;;;5086097;28;20047;-73
2021/12/09 03:02:03;;;;;;;49.00;19.48;;;-0.20;99.90;;;;;;5107340;28;20058;-73
2021/12/09 03:04:44;;;;;;;57.08;19.77;;;-0.20;99.90;;;;;;5111640;28;20027;-73
2021/12/09 03:07:23;;;;;;;53.22;19.40;;;-0.30;99.90;;;;;;5103566;28;20035;-73
2021/12/09 03:09:53;;;;;;;52.30;20.17;;;-0.30;99.90;;;;;;5109326;28;20157;-73
2021/12/09 03:12:26;;;;;;;48.15;19.10;;;-0.30;99.90;;;;;;5109335;28;20028;-72
2021/12/09 03:14:52;;;;;;;50.35;20.13;;;-0.30;99.90;;;;;;5110733;28;20095;-73
2021/12/09 03:17:19;;;;;;;52.33;19.85;;;-0.30;99.90;;;;;;5111621;27;20035;-73
2021/12/09 03:19:44;;;;;;;59.05;20.38;;;-0.30;99.90;;;;;;5110425;27;20038;-73
2021/12/09 03:22:11;;;;;;;55.00;20.08;;;-0.30;99.90;;;;;;5113797;27;20069;-73
2021/12/09 03:24:36;;;;;;;53.08;20.25;;;-0.40;99.90;;;;;;5114897;27;20069;-73
2021/12/09 03:27:02;;;;;;;49.67;19.77;;;-0.40;99.90;;;;;;5114275;27;20470;-72
2021/12/09 03:29:29;;;;;;;55.55;19.70;;;-0.30;99.90;;;;;;5109014;27;20039;-73
2021/12/09 03:31:57;;;;;;;52.70;20.65;;;-0.30;99.90;;;;;;5095116;27;20061;-72
2021/12/09 03:34:25;;;;;;;55.90;20.10;;;-0.30;99.90;;;;;;5114488;27;20031;-73
2021/12/09 03:36:51;;;;;;;56.15;21.40;;;-0.30;99.90;;;;;;5113941;27;20049;-73
2021/12/09 03:39:20;;;;;;;52.92;20.23;;;-0.30;99.90;;;;;;5112574;27;20031;-73
2021/12/09 03:41:50;;;;;;;50.53;19.75;;;-0.30;99.90;;;;;;5115890;27;20038;-73
2021/12/09 03:44:16;;;;;;;51.22;21.05;;;-0.30;99.90;;;;;;5114512;27;20074;-72
2021/12/09 03:46:42;;;;;;;59.83;19.13;;;-0.30;99.90;;;;;;5104402;27;20419;-72
2021/12/09 03:49:09;;;;;;;51.95;19.70;;;-0.30;99.90;;;;;;5116273;27;20137;-72
2021/12/09 03:51:35;;;;;;;55.03;20.80;;;-0.30;99.90;;;;;;5111388;27;20031;-73
2021/12/09 03:54:04;;;;;;;50.53;20.23;;;-0.40;99.90;;;;;;5111803;27;20641;-72
2021/12/09 03:56:30;;;;;;;52.15;21.05;;;-0.40;99.90;;;;;;5108417;27;20074;-72
2021/12/09 03:58:56;;;;;;;54.00;19.90;;;-0.40;99.90;;;;;;5113933;27;20497;-72
2021/12/09 04:01:21;;;;;;;58.15;20.20;;;-0.40;99.90;;;;;;5113277;27;20401;-72
2021/12/09 04:03:47;;;;;;;53.67;21.70;;;-0.40;99.90;;;;;;5114096;27;20031;-72
2021/12/09 04:06:12;;;;;;;56.03;21.40;;;-0.40;99.90;;;;;;5114212;27;20038;-73
2021/12/09 04:08:38;;;;;;;51.45;20.00;;;-0.40;99.90;;;;;;5114482;27;20039;-72
2021/12/09 04:11:05;;;;;;;54.15;20.75;;;-0.40;99.90;;;;;;5112997;27;20039;-73
2021/12/09 04:13:32;;;;;;;52.80;19.92;;;-0.40;99.90;;;;;;5111193;27;20039;-72
2021/12/09 04:15:58;;;;;;;54.75;21.33;;;-0.40;99.90;;;;;;5108327;27;20180;-72
2021/12/09 04:18:24;;;;;;;56.47;20.52;;;-0.50;99.90;;;;;;5113823;27;20130;-72
2021/12/09 04:20:49;;;;;;;50.63;20.35;;;-0.50;99.90;;;;;;5115559;27;20043;-72
2021/12/09 04:23:15;;;;;;;54.58;20.65;;;-0.50;99.90;;;;;;5113853;27;20495;-72
2021/12/09 04:25:41;;;;;;;61.70;20.48;;;-0.50;99.90;;;;;;5096375;27;20117;-72
2021/12/09 04:28:06;;;;;;;51.83;20.58;;;-0.50;99.90;;;;;;5112681;27;20039;-72
2021/12/09 04:30:33;;;;;;;57.92;20.95;;;-0.50;99.90;;;;;;5112471;27;20035;-72
2021/12/09 04:32:58;;;;;;;50.65;19.92;;;-0.50;99.90;;;;;;5110900;27;20521;-72
2021/12/09 04:35:24;;;;;;;50.53;19.98;;;-0.50;99.90;;;;;;5114224;27;20176;-72
2021/12/09 04:37:50;;;;;;;52.63;19.98;;;-0.50;99.90;;;;;;5113230;27;20027;-71
2021/12/09 04:40:16;;;;;;;57.22;20.38;;;-0.50;99.90;;;;;;5111492;27;20043;-71
2021/12/09 04:42:42;;;;;;;57.15;20.65;;;-0.60;99.90;;;;;;5092072;27;20031;-72
2021/12/09 04:45:10;;;;;;;49.47;20.15;;;-0.60;99.90;;;;;;5112854;27;20075;-72
2021/12/09 04:47:36;;;;;;;54.70;20.05;;;-0.50;99.90;;;;;;5113415;27;20039;-71
2021/12/09 04:50:05;;;;;;;59.00;20.83;;;-0.60;99.90;;;;;;5114873;27;20120;-72
2021/12/09 04:52:30;;;;;;;57.85;20.70;;;-0.60;99.90;;;;;;5113574;27;20432;-71
2021/12/09 04:54:56;;;;;;;54.72;19.95;;;-0.50;99.90;;;;;;5111767;27;20046;-70
2021/12/09 04:57:21;;;;;;;60.13;21.10;;;-0.60;99.90;;;;;;5111871;27;20043;-71
2021/12/09 04:59:48;;;;;;;49.75;19.63;;;-0.50;99.90;;;;;;5110498;27;20042;-72
2021/12/09 05:02:25;;;;;;;59.75;21.88;;;-0.60;99.90;;;;;;5111256;27;20355;-71
2021/12/09 05:04:50;;;;;;;58.22;20.00;;;-0.50;99.90;;;;;;5110923;27;20050;-72
2021/12/09 05:07:16;;;;;;;57.03;21.33;;;-0.60;99.90;;;;;;5109706;27;20639;-71
2021/12/09 05:09:49;;;;;;;54.00;21.52;;;-0.60;99.90;;;;;;5113310;27;20035;-72
2021/12/09 05:12:16;;;;;;;54.75;21.38;;;-0.60;99.90;;;;;;5113636;27;20413;-71
2021/12/09 05:14:44;;;;;;;60.15;21.67;;;-0.60;99.90;;;;;;5110866;27;20047;-72
2021/12/09 05:17:11;;;;;;;55.05;20.45;;;-0.60;99.90;;;;;;5110384;27;20067;-72
2021/12/09 05:19:36;;;;;;;52.45;20.70;;;-0.60;99.90;;;;;;5111405;27;20043;-71
2021/12/09 05:22:03;;;;;;;61.38;21.20;;;-0.60;99.90;;;;;;5113391;27;20038;-71
2021/12/09 05:24:28;;;;;;;49.25;20.38;;;-0.60;99.90;;;;;;5113272;27;20096;-72
2021/12/09 05:26:55;;;;;;;52.88;20.23;;;-0.60;99.90;;;;;;5113078;27;20039;-71
2021/12/09 05:29:28;;;;;;;53.20;21.75;;;-0.60;99.90;;;;;;5113063;27;20117;-71
2021/12/09 05:32:10;;;;;;;50.15;20.50;;;-0.60;99.90;;;;;;5112703;27;20393;-71
2021/12/09 05:34:45;;;;;;;59.45;21.73;;;-0.60;99.90;;;;;;5112450;27;20126;-71
2021/12/09 05:37:14;;;;;;;57.78;22.17;;;-0.60;99.90;;;;;;5111052;27;20053;-71
2021/12/09 05:39:42;;;;;;;62.47;22.27;;;-0.70;99.90;;;;;;5107748;27;20481;-71
2021/12/09 05:42:09;;;;;;;51.97;21.20;;;-0.70;99.90;;;;;;5110189;27;20126;-72
2021/12/09 05:44:35;;;;;;;56.22;21.67;;;-0.70;99.90;;;;;;5112522;27;20043;-71
2021/12/09 05:47:05;;;;;;;50.83;20.55;;;-0.70;99.90;;;;;;5112373;27;20043;-71
2021/12/09 05:49:32;;;;;;;52.03;21.23;;;-0.70;99.90;;;;;;5112503;27;20371;-72
2021/12/09 05:51:58;;;;;;;54.75;21.33;;;-0.70;99.90;;;;;;5112625;27;20041;-71
2021/12/09 05:54:23;;;;;;;64.70;22.48;;;-0.70;99.90;;;;;;5126879;27;20197;-71
2021/12/09 05:56:50;;;;;;;53.55;21.10;;;-0.70;99.90;;;;;;5092126;27;20039;-71
2021/12/09 05:59:16;;;;;;;59.97;21.25;;;-0.60;99.90;;;;;;5111503;27;20054;-72
2021/12/09 06:01:42;;;;;;;61.45;21.33;;;-0.70;99.90;;;;;;5110918;27;20035;-72
2021/12/09 06:04:09;;;;;;;63.35;22.13;;;-0.70;99.90;;;;;;5111856;27;20043;-71
2021/12/09 06:06:36;;;;;;;60.88;20.88;;;-0.60;99.90;;;;;;5111892;27;20058;-71
2021/12/09 06:09:05;;;;;;;62.95;20.38;;;-0.70;99.90;;;;;;5111325;27;20549;-71
2021/12/09 06:11:31;;;;;;;58.80;20.85;;;-0.60;99.90;;;;;;5110182;27;20067;-70
2021/12/09 06:13:56;;;;;;;51.53;21.23;;;-0.60;99.90;;;;;;5111806;27;20063;-71
2021/12/09 06:16:24;;;;;;;55.47;21.23;;;-0.60;99.90;;;;;;5111055;27;20130;-71
2021/12/09 06:18:50;;;;;;;56.85;21.13;;;-0.60;99.90;;;;;;5109978;27;20509;-71
2021/12/09 06:21:16;;;;;;;54.88;21.45;;;-0.50;99.90;;;;;;5108463;27;20115;-71
2021/12/09 06:23:42;;;;;;;53.05;20.83;;;-0.60;99.90;;;;;;5111671;27;20031;-71
2021/12/09 06:26:07;;;;;;;65.57;22.45;;;-0.50;99.90;;;;;;5103000;27;20031;-71
2021/12/09 06:28:34;;;;;;;58.03;21.17;;;-0.50;99.90;;;;;;5101620;27;20031;-71
2021/12/09 06:31:00;;;;;;;60.03;22.35;;;-0.50;99.90;;;;;;5089022;27;20089;-71
2021/12/09 06:33:25;;;;;;;65.18;22.40;;;-0.50;99.90;;;;;;5083354;27;20035;-71
2021/12/09 06:35:51;;;;;;;55.35;20.52;;;-0.50;99.90;;;;;;5111898;27;20035;-71
2021/12/09 06:38:17;;;;;;;68.57;22.02;;;-0.60;99.90;;;;;;5110694;27;20042;-71
2021/12/09 06:40:44;;;;;;;65.65;21.60;;;-0.50;99.90;;;;;;5108760;27;20035;-71
2021/12/09 06:43:10;;;;;;;63.65;21.48;;;-0.50;99.90;;;;;;5110474;28;20051;-71
2021/12/09 06:45:36;;;;;;;59.85;21.27;;;-0.50;99.90;;;;;;5111723;27;20487;-69
2021/12/09 06:48:02;;;;;;;61.80;22.77;;;-0.50;99.90;;;;;;5110981;28;20083;-70
2021/12/09 06:50:27;;;;;;;76.25;22.98;;;-0.40;99.90;;;;;;5082697;27;20164;-71
2021/12/09 06:52:53;;;;;;;65.97;22.02;;;-0.40;99.90;;;;;;5105089;28;20038;-71
2021/12/09 06:55:20;;;;;;;64.10;22.15;;;-0.40;99.90;;;;;;5111676;28;20043;-70
2021/12/09 06:57:47;;;;;;;67.03;22.58;;;-0.40;99.90;;;;;;5112146;28;20042;-71
2021/12/09 07:00:16;;;;;;;70.72;22.35;;;-0.40;99.90;;;;;;5111890;28;20042;-71
2021/12/09 07:02:44;;;;;;;67.63;22.55;;;-0.30;99.90;;;;;;5093164;27;20047;-70
2021/12/09 07:05:11;;;;;;;63.42;22.83;;;-0.30;99.90;;;;;;5105200;28;20114;-71
2021/12/09 07:07:38;;;;;;;61.40;21.17;;;-0.30;99.90;;;;;;5112121;28;20405;-70
2021/12/09 07:10:05;;;;;;;64.40;21.70;;;-0.30;99.90;;;;;;5106169;27;20126;-71
2021/12/09 07:12:34;;;;;;;57.67;21.35;;;-0.30;99.90;;;;;;5112244;28;20035;-70
2021/12/09 07:14:59;;;;;;;63.88;20.33;;;-0.30;99.90;;;;;;5111906;28;20397;-71
2021/12/09 07:17:25;;;;;;;64.07;20.88;;;-0.30;99.90;;;;;;5093773;28;20046;-70
2021/12/09 07:19:51;;;;;;;72.95;21.83;;;-0.30;99.90;;;;;;5112004;28;20077;-70
2021/12/09 07:22:16;;;;;;;66.82;22.00;;;-0.20;99.90;;;;;;5111944;28;20038;-70
2021/12/09 07:24:42;;;;;;;58.70;21.42;;;-0.20;99.90;;;;;;5126174;28;20396;-71
2021/12/09 07:27:07;;;;;;;60.28;21.77;;;-0.20;99.90;;;;;;5112239;28;20523;-70
2021/12/09 07:29:33;;;;;;;68.50;22.10;;;-0.10;99.90;;;;;;5111959;28;20138;-70
2021/12/09 07:31:58;;;;;;;70.43;21.75;;;0.00;99.90;;;;;;5105810;28;20031;-70
2021/12/09 07:34:24;;;;;;;72.93;20.17;;;0.10;99.90;;;;;;5111918;28;20458;-70
2021/12/09 07:36:50;;;;;;;63.15;20.40;;;0.10;99.90;;;;;;5112106;28;20077;-70
2021/12/09 07:39:16;;;;;;;62.42;20.05;;;0.10;99.90;;;;;;5107201;28;20390;-71
2021/12/09 07:41:41;;;;;;;66.10;20.00;;;0.20;99.90;;;;;;5111645;28;20039;-71
2021/12/09 07:44:07;;;;;;;59.63;20.80;;;0.20;99.90;;;;;;5111846;28;20041;-71
2021/12/09 07:46:34;;;;;;;54.38;20.15;;;0.20;99.90;;;;;;5112507;28;20443;-70
2021/12/09 07:49:00;;;;;;;61.72;20.00;;;0.20;99.90;;;;;;5093104;28;20036;-70
2021/12/09 07:51:25;;;;;;;57.22;19.65;;;0.20;99.90;;;;;;5111407;28;20032;-70
2021/12/09 07:53:51;;;;;;;62.95;19.00;;;0.30;99.90;;;;;;5113008;28;20629;-70
2021/12/09 07:56:18;;;;;;;56.97;17.80;;;0.30;99.90;;;;;;5099313;28;20050;-70
2021/12/09 07:58:44;;;;;;;55.90;18.50;;;0.30;99.90;;;;;;5110501;27;20043;-70
2021/12/09 08:01:10;;;;;;;49.33;18.08;;;0.20;99.90;;;;;;5110698;28;20383;-70
2021/12/09 08:03:36;;;;;;;57.58;17.92;;;0.30;99.90;;;;;;5114241;27;20077;-71
2021/12/09 08:06:02;;;;;;;58.25;17.85;;;0.30;99.90;;;;;;5115880;27;20035;-71
2021/12/09 08:08:28;;;;;;;46.28;16.85;;;0.30;99.90;;;;;;5117000;27;20114;-71
2021/12/09 08:10:53;;;;;;;55.75;19.17;;;0.30;99.90;;;;;;5116221;27;20089;-71
2021/12/09 08:13:19;;;;;;;53.13;18.10;;;0.20;99.90;;;;;;5116339;27;20043;-71
2021/12/09 08:15:48;;;;;;;50.72;17.42;;;0.20;99.90;;;;;;5116113;27;20046;-71
2021/12/09 08:20:48;;;;;;;47.00;16.95;;;0.20;99.90;;;;;;5115644;27;20055;-71
2021/12/09 08:23:14;;;;;;;51.80;16.95;;;0.20;99.90;;;;;;5115750;27;20039;-71
2021/12/09 08:25:41;;;;;;;53.67;17.17;;;0.20;99.90;;;;;;5116426;27;20046;-71
2021/12/09 08:28:07;;;;;;;50.22;17.33;;;0.20;99.90;;;;;;5113903;27;20118;-71
2021/12/09 08:30:33;;;;;;;61.08;17.67;;;0.20;99.90;;;;;;5113459;27;20039;-71
2021/12/09 08:32:59;;;;;;;49.25;16.77;;;0.20;99.90;;;;;;5109100;27;20595;-71
2021/12/09 08:35:25;;;;;;;50.60;16.20;;;0.20;99.90;;;;;;5114594;27;20129;-71
2021/12/09 08:37:51;;;;;;;45.53;16.77;;;0.20;99.90;;;;;;5113466;27;20031;-71
2021/12/09 08:40:17;;;;;;;47.78;16.70;;;0.20;99.90;;;;;;5110249;27;20077;-70
2021/12/09 08:42:44;;;;;;;48.78;16.60;;;0.30;99.90;;;;;;5105320;27;20032;-71
2021/12/09 08:45:11;;;;;;;47.58;16.77;;;0.30;99.90;;;;;;5098760;27;20046;-71
2021/12/09 08:47:38;;;;;;;50.67;16.90;;;0.30;99.90;;;;;;5098313;27;20495;-72
2021/12/09 08:50:07;;;;;;;51.25;17.27;;;0.30;99.90;;;;;;5112162;27;20042;-72
2021/12/09 08:52:34;;;;;;;42.25;15.32;;;0.40;99.90;;;;;;5114678;27;20444;-71
2021/12/09 08:55:01;;;;;;;51.72;16.98;;;0.40;99.90;;;;;;5103629;27;20052;-72
2021/12/09 08:57:27;;;;;;;45.95;16.63;;;0.40;99.90;;;;;;5111050;27;20050;-72
2021/12/09 08:59:52;;;;;;;45.53;16.20;;;0.40;99.90;;;;;;5102311;28;20039;-71
2021/12/09 09:02:18;;;;;;;42.17;16.33;;;0.50;99.90;;;;;;5113264;27;20039;-72
2021/12/09 09:04:45;;;;;;;45.40;15.80;;;0.50;99.90;;;;;;5108323;27;20038;-72
2021/12/09 09:07:11;;;;;;;43.22;16.40;;;0.50;99.90;;;;;;5113214;27;20058;-72
2021/12/09 09:09:38;;;;;;;46.10;16.23;;;0.50;99.90;;;;;;5114325;27;20077;-72
2021/12/09 09:12:07;;;;;;;40.92;15.77;;;0.60;99.90;;;;;;5106409;28;20043;-72
2021/12/09 09:14:33;;;;;;;48.05;17.20;;;0.60;99.90;;;;;;5091633;27;20125;-71
2021/12/09 09:16:59;;;;;;;39.03;15.90;;;0.60;99.90;;;;;;5112994;27;20035;-71
2021/12/09 09:19:25;;;;;;;50.03;17.25;;;0.70;99.90;;;;;;5112957;27;20623;-71
2021/12/09 09:21:51;;;;;;;48.80;16.05;;;0.70;99.90;;;;;;5095436;27;20058;-71
2021/12/09 09:24:17;;;;;;;49.70;16.52;;;0.80;99.90;;;;;;5113053;27;20195;-70
2021/12/09 09:26:43;;;;;;;45.75;16.30;;;0.80;99.90;;;;;;5105299;27;20038;-71
2021/12/09 09:29:09;;;;;;;44.78;15.88;;;0.80;99.90;;;;;;5112680;27;20055;-71
2021/12/09 09:31:35;;;;;;;50.55;16.42;;;0.90;99.90;;;;;;5109556;27;20489;-71
2021/12/09 09:34:03;;;;;;;43.10;16.70;;;0.90;99.90;;;;;;5095663;27;20034;-71
2021/12/09 09:36:29;;;;;;;45.78;16.60;;;1.00;99.90;;;;;;5113368;27;20050;-70
2021/12/09 09:39:00;;;;;;;40.47;16.95;;;1.00;99.90;;;;;;5112242;27;20048;-71
2021/12/09 09:41:32;;;;;;;45.78;16.60;;;1.10;99.90;;;;;;5091508;27;20393;-71
2021/12/09 09:44:10;;;;;;;51.80;16.38;;;1.10;99.90;;;;;;5095953;27;20038;-71
2021/12/09 09:46:35;;;;;;;43.90;15.95;;;1.20;99.90;;;;;;5112142;27;20460;-71
2021/12/09 09:49:02;;;;;;;43.78;16.83;;;1.20;99.90;;;;;;5109012;28;20166;-71
2021/12/09 09:51:30;;;;;;;49.22;17.08;;;1.30;99.90;;;;;;5110733;27;20050;-71
2021/12/09 09:53:56;;;;;;;38.40;15.40;;;1.30;99.90;;;;;;5113529;27;20047;-69
2021/12/09 09:56:24;;;;;;;41.00;15.15;;;1.40;99.90;;;;;;5110916;27;20504;-71
2021/12/09 09:58:56;;;;;;;44.17;15.65;;;1.40;99.90;;;;;;5110405;27;20118;-71
2021/12/09 10:01:24;;;;;;;33.70;15.10;;;1.50;99.90;;;;;;5091382;27;20436;-70
2021/12/09 10:03:58;;;;;;;43.20;15.82;;;1.50;99.90;;;;;;5113453;27;20085;-72
2021/12/09 10:06:24;;;;;;;42.40;15.60;;;1.60;99.90;;;;;;5112760;27;20035;-72
2021/12/09 10:08:49;;;;;;;44.40;15.25;;;1.60;99.90;;;;;;5114037;27;20046;-72
2021/12/09 10:11:15;;;;;;;40.95;15.95;;;1.70;99.90;;;;;;5097507;27;20039;-72
2021/12/09 10:13:42;;;;;;;48.70;15.85;;;1.80;99.90;;;;;;5095908;27;20466;-72
2021/12/09 10:16:21;;;;;;;46.15;14.88;;;1.90;99.90;;;;;;5132136;27;20123;-72
2021/12/09 10:18:49;;;;;;;37.00;15.05;;;1.90;99.90;;;;;;5113660;27;20389;-70
2021/12/09 10:21:27;;;;;;;42.08;15.40;;;2.00;99.90;;;;;;5097762;27;20039;-72
2021/12/09 10:24:05;;;;;;;42.13;14.45;;;2.00;99.90;;;;;;5094635;27;20039;-72
2021/12/09 10:26:43;;;;;;;41.88;14.88;;;2.10;99.90;;;;;;5109491;27;20031;-73
2021/12/09 10:29:26;;;;;;;40.45;14.43;;;2.20;99.90;;;;;;5110298;27;20035;-72
2021/12/09 10:31:59;;;;;;;44.58;14.32;;;2.20;99.90;;;;;;5114013;27;20034;-73
2021/12/09 10:34:36;;;;;;;45.20;15.23;;;2.30;99.90;;;;;;5105971;27;20038;-73
2021/12/09 10:37:07;;;;;;;40.65;15.27;;;2.30;99.90;;;;;;5096577;27;20499;-73
2021/12/09 10:39:41;;;;;;;42.38;15.02;;;2.40;99.90;;;;;;5093965;27;20549;-73
2021/12/09 10:42:13;;;;;;;45.15;14.93;;;2.50;99.90;;;;;;5113725;28;20114;-73
2021/12/09 10:45:02;;;;;;;35.08;14.82;;;2.60;99.90;;;;;;5104175;28;20031;-73
2021/12/09 10:47:50;;;;;;;38.72;14.55;;;2.70;99.90;;;;;;5090972;27;20122;-73
2021/12/09 10:50:43;;;;;;;39.58;14.60;;;2.70;99.90;;;;;;5107857;27;20074;-73
2021/12/09 10:56:01;;;;;;;35.05;14.30;;;2.90;99.90;;;;;;5113712;27;20067;-72
2021/12/09 10:58:33;;;;;;;41.88;15.13;;;3.00;99.90;;;;;;5108809;28;20469;-72
2021/12/09 11:01:20;;;;;;;40.58;14.85;;;3.00;99.90;;;;;;5112885;28;20039;-72
2021/12/09 11:03:55;;;;;;;41.80;15.18;;;3.00;99.90;;;;;;5095089;28;20427;-71
2021/12/09 11:06:21;;;;;;;38.97;15.57;;;3.00;99.90;;;;;;5093504;28;20036;-72
2021/12/09 11:08:50;;;;;;;51.08;17.30;;;3.10;99.90;;;;;;5087340;28;20088;-71
2021/12/09 11:11:17;;;;;;;48.88;17.77;;;3.10;99.90;;;;;;5113033;28;20043;-69
2021/12/09 11:13:53;;;;;;;47.30;18.05;;;3.10;99.90;;;;;;5112846;28;20066;-70
2021/12/09 11:16:51;;;;;;;48.60;17.92;;;3.10;99.90;;;;;;5113388;28;20126;-71
2021/12/09 11:19:35;;;;;;;52.35;18.85;;;3.10;99.90;;;;;;5100510;27;20043;-70
2021/12/09 11:22:05;;;;;;;42.90;17.75;;;3.10;99.90;;;;;;5110336;28;20043;-70
2021/12/09 11:24:38;;;;;;;51.35;19.25;;;3.10;99.90;;;;;;5111641;28;20401;-72
2021/12/09 11:27:09;;;;;;;52.72;19.40;;;3.10;99.90;;;;;;5110774;28;20038;-70
2021/12/09 11:29:43;;;;;;;55.75;18.48;;;3.10;99.90;;;;;;5113370;28;20042;-73
2021/12/09 11:32:20;;;;;;;53.67;18.35;;;3.10;99.90;;;;;;5110624;28;20122;-71
2021/12/09 11:34:55;;;;;;;47.15;18.98;;;3.10;99.90;;;;;;5110498;28;20493;-72
2021/12/09 11:40:00;;;;;;;53.45;19.33;;;3.10;99.90;;;;;;5116842;27;20051;-71
2021/12/09 11:43:12;;;;;;;55.95;19.67;;;3.20;99.90;;;;;;5133552;27;20066;-71
2021/12/09 11:45:14;;;;;;;52.63;18.83;;;3.20;99.90;;;;;;5110751;27;20474;-71
2021/12/09 11:47:42;;;;;;;53.17;19.02;;;3.20;99.90;;;;;;5116607;27;20038;-72
2021/12/09 11:50:11;;;;;;;54.08;18.55;;;3.20;99.90;;;;;;5098416;27;20046;-71
2021/12/09 11:52:38;;;;;;;48.75;19.45;;;3.30;99.90;;;;;;5115991;27;20031;-72
2021/12/09 11:55:07;;;;;;;56.70;19.20;;;3.30;99.90;;;;;;5115850;27;20171;-71
2021/12/09 11:57:42;;;;;;;45.13;18.77;;;3.30;99.90;;;;;;5114049;27;20083;-72
2021/12/09 12:12:27;;;;;;;48.42;19.23;;;3.60;99.90;;;;;;5112977;27;20046;-72
2021/12/09 12:14:58;;;;;;;52.92;18.45;;;3.60;99.90;;;;;;5109829;27;20035;-73
2021/12/09 12:17:31;;;;;;;48.55;19.33;;;3.60;99.90;;;;;;5114046;27;20043;-72
2021/12/09 12:20:36;;;;;;;50.78;20.02;;;3.70;99.90;;;;;;5112538;27;20035;-73
2021/12/09 12:23:15;;;;;;;51.70;19.13;;;3.60;99.90;;;;;;5095243;27;20113;-73
2021/12/09 12:28:42;;;;;;;54.45;20.02;;;3.70;99.90;;;;;;5113863;27;20043;-74
2021/12/09 12:31:26;;;;;;;53.53;19.38;;;3.70;99.90;;;;;;5112723;27;20031;-72
2021/12/09 12:39:31;;;;;;;48.58;18.38;;;3.70;99.90;;;;;;5102707;27;19999;-73
2021/12/09 12:42:06;;;;;;;57.47;19.98;;;3.70;99.90;;;;;;5096059;27;20374;-72
2021/12/09 12:44:32;;;;;;;62.72;19.77;;;3.80;99.90;;;;;;5112816;27;20115;-73
2021/12/09 12:47:10;;;;;;;66.72;21.33;;;3.80;99.90;;;;;;5096479;27;20043;-72
2021/12/09 12:49:37;;;;;;;61.30;21.33;;;3.80;99.90;;;;;;5092761;27;20383;-72
2021/12/09 12:52:17;;;;;;;57.88;21.92;;;3.80;99.90;;;;;;5110967;27;20054;-71
2021/12/09 12:54:58;;;;;;;58.42;21.17;;;3.90;99.90;;;;;;5112125;27;20066;-73
2021/12/09 12:57:32;;;;;;;64.97;21.35;;;3.90;99.90;;;;;;5094889;27;20518;-73
2021/12/09 13:00:28;;;;;;;58.17;20.88;;;3.90;99.90;;;;;;5127843;27;20086;-72
2021/12/09 13:09:13;;;;;;;56.42;21.20;;;4.00;99.90;;;;;;5111416;27;20070;-72
2021/12/09 13:11:43;;;;;;;55.95;20.20;;;4.00;99.90;;;;;;5106065;27;20036;-74
2021/12/09 13:14:18;;;;;;;;;;;4.00;99.90;;;;;;5109085;27;20128;-73